Time;durP1;ratioP1;P1;durP2;ratioP2;P2;SDS_P1;SDS_P2;PMS_P1;PMS_P2;Temp;Humidity;BMP_temperature;BMP_pressure;BME280_temperature;BME280_humidity;BME280_pressure;Samples;Min_cycle;Max_cycle;Signal;HPM_P1;HPM_P2
2021/08/30 00:00:45;;;;;;;17.10;12.90;;;;;;;18.65;88.29;98739.34;115536;1204;23365;-58
2021/08/30 00:03:14;;;;;;;16.50;13.70;;;;;;;18.67;88.13;98741.81;115389;1201;138159;-58
2021/08/30 00:05:43;;;;;;;16.30;13.40;;;;;;;18.70;87.92;98746.02;115544;1211;22341;-56
2021/08/30 00:08:11;;;;;;;14.80;13.20;;;;;;;18.73;87.76;98749.70;115403;1201;138999;-57
2021/08/30 00:10:39;;;;;;;16.50;12.50;;;;;;;18.76;87.74;98744.86;115551;1204;22950;-57
2021/08/30 00:13:07;;;;;;;15.80;12.60;;;;;;;18.80;87.49;98745.94;115549;1204;22228;-57
2021/08/30 00:15:35;;;;;;;15.70;12.50;;;;;;;18.82;87.39;98745.33;115424;1200;137759;-56
2021/08/30 00:18:09;;;;;;;15.60;11.70;;;;;;;18.84;87.27;98750.30;115486;1207;23276;-57
2021/08/30 00:20:40;;;;;;;15.70;11.80;;;;;;;18.83;87.14;98748.15;115421;1200;138905;-57
2021/08/30 00:23:09;;;;;;;14.00;12.20;;;;;;;18.84;87.06;98747.89;115529;1210;22286;-57
2021/08/30 00:25:37;;;;;;;16.30;11.60;;;;;;;18.85;87.08;98750.75;115345;1201;140007;-57
2021/08/30 00:28:06;;;;;;;15.80;12.20;;;;;;;18.85;87.04;98747.98;115542;1204;23168;-57
2021/08/30 00:30:37;;;;;;;16.50;11.60;;;;;;;18.83;86.92;98746.11;115540;1204;22355;-58
2021/08/30 00:33:05;;;;;;;17.30;11.50;;;;;;;18.82;87.03;98742.95;115398;1201;138022;-57
2021/08/30 00:35:33;;;;;;;13.50;11.20;;;;;;;18.81;86.93;98746.54;115533;1204;22373;-58
2021/08/30 00:38:02;;;;;;;17.40;12.00;;;;;;;18.79;87.01;98752.67;115390;1201;139125;-58
2021/08/30 00:40:50;;;;;;;15.30;11.00;;;;;;;18.75;86.90;98753.02;115528;1204;23354;-57
2021/08/30 00:43:19;;;;;;;14.30;11.00;;;;;;;18.72;86.95;98749.98;115568;1204;22390;-58
2021/08/30 00:45:47;;;;;;;13.00;10.30;;;;;;;18.71;86.96;98746.09;115425;1201;137842;-57
2021/08/30 00:48:15;;;;;;;13.30;10.60;;;;;;;18.70;86.93;98746.35;115497;1205;22300;-57
2021/08/30 00:50:43;;;;;;;11.00;9.80;;;;;;;18.70;86.92;98753.82;115400;1200;138005;-57
2021/08/30 00:53:11;;;;;;;11.80;9.70;;;;;;;18.70;86.87;98755.83;115540;1206;22301;-57
2021/08/30 00:55:39;;;;;;;10.80;9.20;;;;;;;18.71;86.82;98753.66;115314;1200;138076;-57
2021/08/30 00:58:07;;;;;;;13.30;10.60;;;;;;;18.73;86.71;98750.80;115564;1204;22380;-58
2021/08/30 01:00:35;;;;;;;12.80;10.10;;;;;;;18.73;86.69;98754.52;115499;1206;22848;-57
2021/08/30 01:03:03;;;;;;;10.80;9.60;;;;;;;18.74;86.58;98759.05;115399;1201;138916;-57
2021/08/30 01:05:32;;;;;;;10.60;9.50;;;;;;;18.74;86.61;98761.19;115551;1206;22331;-57
2021/08/30 01:08:08;;;;;;;19.00;9.80;;;;;;;18.73;86.58;98762.09;115303;1203;138586;-57
2021/08/30 01:10:39;;;;;;;14.10;10.30;;;;;;;18.75;86.53;98762.30;115379;1207;22379;-57
2021/08/30 01:13:10;;;;;;;12.80;9.60;;;;;;;18.76;86.52;98762.19;115522;1204;22397;-57
2021/08/30 01:15:43;;;;;;;11.20;10.10;;;;;;;18.76;86.49;98758.79;115361;1202;138053;-57
2021/08/30 01:18:18;;;;;;;13.00;9.30;;;;;;;18.77;86.39;98756.20;115458;1205;22295;-57
2021/08/30 01:21:16;;;;;;;12.80;9.00;;;;;;;18.75;86.44;98753.71;115360;1201;137924;-58
2021/08/30 01:24:08;;;;;;;13.00;9.20;;;;;;;18.74;86.55;98752.73;115430;1212;22283;-58
2021/08/30 01:26:39;;;;;;;11.20;9.30;;;;;;;18.74;86.54;98750.44;115285;1201;138126;-57
2021/08/30 01:29:36;;;;;;;12.80;9.40;;;;;;;18.73;86.53;98748.75;115440;1204;23012;-58
2021/08/30 01:32:22;;;;;;;13.60;10.00;;;;;;;18.72;86.53;98745.34;115377;1201;138256;-57
2021/08/30 01:34:50;;;;;;;12.80;9.80;;;;;;;18.71;86.47;98743.10;115459;1207;24190;-57
2021/08/30 01:37:18;;;;;;;13.40;8.80;;;;;;;18.70;86.46;98740.45;115454;1210;22337;-57
2021/08/30 01:39:53;;;;;;;12.70;9.40;;;;;;;18.69;86.49;98746.16;115338;1202;138600;-57
2021/08/30 01:42:21;;;;;;;11.80;9.00;;;;;;;18.68;86.48;98750.92;115530;1205;22276;-57
2021/08/30 01:44:48;;;;;;;11.50;9.00;;;;;;;18.69;86.48;98757.04;115360;1201;140770;-57
2021/08/30 01:47:17;;;;;;;11.80;8.90;;;;;;;18.70;86.55;98765.73;115481;1211;22998;-57
2021/08/30 01:49:44;;;;;;;12.60;9.60;;;;;;;18.71;86.47;98771.87;115360;1201;139330;-57
2021/08/30 01:52:13;;;;;;;12.90;9.10;;;;;;;18.71;86.47;98766.73;115386;1205;23111;-57
2021/08/30 01:54:41;;;;;;;17.40;9.00;;;;;;;18.70;86.47;98769.86;115496;1204;22813;-57
2021/08/30 01:57:11;;;;;;;15.40;9.50;;;;;;;18.68;86.34;98773.23;115409;1202;139317;-57
2021/08/30 02:02:26;;;;;;;13.60;9.00;;;;;;;18.61;86.29;98737.77;115312;1202;138539;-57
2021/08/30 02:04:54;;;;;;;15.30;10.00;;;;;;;18.59;86.45;98759.18;115547;1204;22296;-57
2021/08/30 02:07:23;;;;;;;11.00;9.10;;;;;;;18.56;86.44;98787.92;115499;1204;22261;-57
2021/08/30 02:09:52;;;;;;;13.40;9.30;;;;;;;18.57;86.54;98795.35;115390;1205;139241;-57
2021/08/30 02:12:22;;;;;;;12.90;8.90;;;;;;;18.59;86.50;98785.44;115488;1204;22321;-57
2021/08/30 02:14:50;;;;;;;15.30;9.10;;;;;;;18.59;86.47;98780.58;115336;1200;138815;-58
2021/08/30 02:17:22;;;;;;;11.20;9.50;;;;;;;18.59;86.44;98799.82;115543;1204;22308;-57
2021/08/30 02:20:08;;;;;;;9.90;8.50;;;;;;;18.59;86.30;98815.50;115410;1201;138416;-57
2021/08/30 02:22:40;;;;;;;12.00;8.80;;;;;;;18.60;86.27;98817.98;115500;1204;22259;-57
2021/08/30 02:25:13;;;;;;;13.90;9.80;;;;;;;18.60;86.25;98821.61;115511;1205;22346;-57
2021/08/30 02:27:53;;;;;;;17.50;8.60;;;;;;;18.60;86.19;98815.45;115398;1201;137913;-57
2021/08/30 02:30:29;;;;;;;14.00;8.70;;;;;;;18.60;86.24;98811.19;115547;1204;22340;-57
2021/08/30 02:32:59;;;;;;;10.20;8.90;;;;;;;18.58;86.17;98807.30;115351;1201;138348;-57
2021/08/30 02:35:29;;;;;;;13.10;8.90;;;;;;;18.57;86.19;98815.16;115553;1204;22250;-57
2021/08/30 02:37:57;;;;;;;12.30;8.70;;;;;;;18.57;86.07;98815.77;115228;1202;139139;-57
2021/08/30 02:40:27;;;;;;;13.20;9.10;;;;;;;18.57;86.11;98814.98;115509;1204;22344;-58
2021/08/30 02:43:00;;;;;;;12.70;8.80;;;;;;;18.56;85.99;98810.21;115438;1207;22291;-57
2021/08/30 02:45:29;;;;;;;12.20;8.80;;;;;;;18.55;85.96;98804.95;115389;1201;137758;-57
2021/08/30 02:47:57;;;;;;;12.80;9.20;;;;;;;18.53;85.85;98800.13;115453;1206;22360;-57
2021/08/30 02:50:25;;;;;;;16.60;9.40;;;;;;;18.53;85.87;98800.13;115390;1201;137791;-58
2021/08/30 02:52:54;;;;;;;13.50;9.00;;;;;;;18.51;85.75;98802.65;115495;1204;22842;-57
2021/08/30 02:55:22;;;;;;;13.60;10.20;;;;;;;18.49;85.73;98803.40;115370;1204;22447;-57
2021/08/30 02:57:50;;;;;;;12.60;8.30;;;;;;;18.45;85.72;98812.33;115373;1201;137831;-57
2021/08/30 03:00:18;;;;;;;15.60;9.20;;;;;;;18.42;85.81;98812.42;115456;1205;22381;-57
2021/08/30 03:02:46;;;;;;;14.70;9.40;;;;;;;18.41;85.78;98806.45;115401;1201;137836;-57
2021/08/30 03:05:14;;;;;;;10.20;8.60;;;;;;;18.39;85.67;98802.58;115432;1207;22345;-57
2021/08/30 03:07:42;;;;;;;11.70;8.30;;;;;;;18.37;85.78;98799.20;115283;1201;138031;-57
2021/08/30 03:10:10;;;;;;;13.00;8.70;;;;;;;18.35;85.82;98797.20;115548;1211;22369;-57
2021/08/30 03:14:29;;;;;;;14.90;9.20;;;;;;;18.32;85.81;98802.44;110037;1226;546111;-58
2021/08/30 03:17:00;;;;;;;14.50;9.40;;;;;;;18.28;85.78;98805.65;111154;1209;25005;-58
2021/08/30 03:19:28;;;;;;;12.70;8.90;;;;;;;18.26;85.83;98805.61;115383;1208;22273;-57
2021/08/30 03:21:58;;;;;;;13.80;8.40;;;;;;;18.25;85.89;98805.39;115192;1208;136929;-57
2021/08/30 03:24:27;;;;;;;13.50;8.20;;;;;;;18.25;85.88;98809.31;115265;1210;22317;-57
2021/08/30 03:26:56;;;;;;;13.00;9.30;;;;;;;18.24;85.88;98809.80;115251;1205;138150;-57
2021/08/30 03:29:24;;;;;;;12.00;8.70;;;;;;;18.24;85.93;98806.73;115318;1209;22312;-57
2021/08/30 03:31:52;;;;;;;12.30;8.60;;;;;;;18.24;85.92;98809.18;115165;1205;138383;-57
2021/08/30 03:34:20;;;;;;;14.80;8.90;;;;;;;18.23;86.01;98804.77;115311;1208;22334;-57
2021/08/30 03:36:48;;;;;;;10.70;8.50;;;;;;;18.21;86.00;98800.20;115332;1208;22338;-57
2021/08/30 03:39:16;;;;;;;12.70;8.60;;;;;;;18.21;86.11;98803.44;114955;1205;138687;-56
2021/08/30 03:41:44;;;;;;;15.60;9.30;;;;;;;18.21;86.08;98809.23;115191;1208;22372;-57
2021/08/30 03:44:12;;;;;;;13.20;8.80;;;;;;;18.20;86.13;98797.86;115173;1205;138320;-57
2021/08/30 03:46:43;;;;;;;12.30;8.80;;;;;;;18.19;86.20;98787.98;115391;1208;23074;-57
2021/08/30 03:49:11;;;;;;;12.70;8.80;;;;;;;18.18;86.27;98786.45;115293;1209;23095;-57
2021/08/30 03:51:39;;;;;;;14.00;9.00;;;;;;;18.17;86.27;98783.58;115204;1205;137376;-57
2021/08/30 03:54:08;;;;;;;10.50;8.70;;;;;;;18.15;86.14;98785.45;115348;1208;22356;-57
2021/08/30 03:56:36;;;;;;;14.50;10.10;;;;;;;18.14;86.23;98786.75;115132;1206;137709;-57
2021/08/30 03:59:04;;;;;;;10.70;8.90;;;;;;;18.15;86.16;98788.11;115217;1215;22356;-57
2021/08/30 04:01:32;;;;;;;11.90;8.80;;;;;;;18.16;86.20;98784.84;115324;1215;22452;-57
2021/08/30 04:04:05;;;;;;;13.90;9.00;;;;;;;18.16;86.13;98790.06;115172;1205;137347;-57
2021/08/30 04:06:33;;;;;;;12.90;9.30;;;;;;;18.17;86.11;98785.23;115262;1213;22385;-57
2021/08/30 04:09:01;;;;;;;18.20;10.10;;;;;;;18.18;86.08;98785.98;115161;1205;138291;-57
2021/08/30 04:11:34;;;;;;;13.40;9.40;;;;;;;18.19;86.13;98786.70;115344;1208;22264;-57
2021/08/30 04:14:08;;;;;;;13.30;9.00;;;;;;;18.19;86.21;98785.40;115164;1205;137706;-57
2021/08/30 04:16:51;;;;;;;13.10;8.90;;;;;;;18.21;86.09;98783.69;115348;1208;22371;-57
2021/08/30 04:19:39;;;;;;;16.70;10.10;;;;;;;18.24;86.09;98785.86;115378;1208;22309;-57
2021/08/30 04:22:07;;;;;;;18.50;9.50;;;;;;;18.27;86.01;98787.71;115162;1204;138753;-57
2021/08/30 04:24:35;;;;;;;13.70;9.00;;;;;;;18.28;85.78;98781.80;115290;1208;22280;-58
2021/08/30 04:27:04;;;;;;;14.40;9.50;;;;;;;18.32;85.63;98780.98;115224;1205;138029;-58
2021/08/30 04:29:34;;;;;;;11.00;9.10;;;;;;;18.37;85.56;98785.41;115317;1208;22312;-58
2021/08/30 04:32:04;;;;;;;13.20;8.80;;;;;;;18.43;85.47;98776.39;115217;1205;138504;-58
2021/08/30 04:34:32;;;;;;;11.00;9.40;;;;;;;18.51;85.37;98771.42;115348;1208;22746;-57
2021/08/30 04:37:00;;;;;;;16.20;9.40;;;;;;;18.58;85.24;98773.34;115320;1208;22102;-57
2021/08/30 04:39:28;;;;;;;13.10;9.30;;;;;;;18.67;85.11;98776.88;114548;1205;137471;-57
2021/08/30 04:41:57;;;;;;;13.00;9.50;;;;;;;18.77;84.77;98785.58;111138;1208;25121;-60
2021/08/30 04:44:25;;;;;;;13.70;8.80;;;;;;;18.84;84.16;98798.97;115236;1205;138675;-58
2021/08/30 04:46:53;;;;;;;15.40;9.50;;;;;;;18.88;83.96;98817.70;115334;1208;22444;-58
2021/08/30 04:49:22;;;;;;;14.30;9.60;;;;;;;18.91;83.76;98824.81;115781;1208;23152;-58
2021/08/30 04:51:49;;;;;;;10.00;8.70;;;;;;;18.93;83.55;98834.68;115586;1198;137430;-59
2021/08/30 04:54:20;;;;;;;12.80;9.20;;;;;;;18.93;83.50;98835.40;115776;1205;22368;-58
2021/08/30 04:56:48;;;;;;;27.00;11.50;;;;;;;18.97;83.25;98835.42;115670;1198;137487;-58
2021/08/30 04:59:16;;;;;;;14.20;9.80;;;;;;;19.00;83.20;98829.93;115743;1202;22766;-58
2021/08/30 05:01:44;;;;;;;17.00;10.00;;;;;;;19.02;83.02;98818.50;115750;1202;24067;-58
2021/08/30 05:04:13;;;;;;;13.50;10.30;;;;;;;19.02;82.98;98804.01;115582;1199;137663;-59
2021/08/30 05:06:41;;;;;;;12.80;10.10;;;;;;;19.01;82.81;98794.33;115692;1202;22350;-59
2021/08/30 05:09:09;;;;;;;14.60;10.30;;;;;;;19.00;82.70;98793.88;115593;1199;139213;-59
2021/08/30 05:11:37;;;;;;;15.00;10.50;;;;;;;18.99;82.69;98797.48;115650;1202;22354;-59
2021/08/30 05:14:05;;;;;;;13.30;9.20;;;;;;;19.00;82.59;98799.66;115527;1198;137962;-59
2021/08/30 05:16:34;;;;;;;12.10;9.50;;;;;;;19.03;82.65;98804.69;115728;1202;22206;-59
2021/08/30 05:19:02;;;;;;;14.40;10.30;;;;;;;19.09;82.55;98809.27;115653;1202;22232;-59
2021/08/30 05:21:31;;;;;;;14.00;10.20;;;;;;;19.18;82.48;98813.90;115597;1198;137618;-59
2021/08/30 05:24:00;;;;;;;16.40;10.20;;;;;;;19.32;82.37;98807.66;115785;1202;22942;-59
2021/08/30 05:26:29;;;;;;;14.20;9.60;;;;;;;19.47;82.10;98797.48;115676;1198;138094;-59
2021/08/30 05:28:57;;;;;;;18.30;9.60;;;;;;;19.62;81.70;98792.08;115728;1202;23167;-59
2021/08/30 05:31:25;;;;;;;13.10;9.20;;;;;;;19.72;80.87;98790.25;115696;1202;22309;-59
2021/08/30 05:33:55;;;;;;;18.70;9.90;;;;;;;19.75;80.68;98785.16;115571;1198;137432;-59
2021/08/30 05:36:24;;;;;;;16.20;10.00;;;;;;;19.73;80.58;98779.39;115795;1202;22345;-59
2021/08/30 05:38:53;;;;;;;17.30;10.40;;;;;;;19.70;80.54;98773.29;115614;1199;137597;-59
2021/08/30 05:41:21;;;;;;;12.50;10.10;;;;;;;19.67;80.22;98766.13;115683;1203;23007;-59
2021/08/30 05:43:49;;;;;;;16.30;10.00;;;;;;;19.62;79.88;98758.42;115719;1203;22298;-57
2021/08/30 05:46:17;;;;;;;20.10;10.70;;;;;;;19.57;79.43;98761.39;115615;1199;138612;-57
2021/08/30 05:48:46;;;;;;;18.10;10.30;;;;;;;19.51;79.57;98764.70;115799;1209;22362;-57
2021/08/30 05:51:15;;;;;;;24.40;12.00;;;;;;;19.48;79.63;98762.04;115554;1198;137744;-57
2021/08/30 05:53:43;;;;;;;20.50;11.00;;;;;;;19.48;79.67;98765.84;115673;1209;22352;-57
2021/08/30 05:56:11;;;;;;;17.20;10.70;;;;;;;19.52;79.74;98775.33;115559;1199;137794;-57
2021/08/30 05:58:39;;;;;;;17.60;11.10;;;;;;;19.58;79.08;98780.63;115671;1205;22292;-57
2021/08/30 06:01:07;;;;;;;18.80;11.60;;;;;;;19.61;78.88;98782.34;115775;1203;22299;-57
2021/08/30 06:03:36;;;;;;;22.30;11.60;;;;;;;19.62;78.38;98786.70;115632;1198;138888;-57
2021/08/30 06:06:04;;;;;;;17.80;10.90;;;;;;;19.62;78.48;98773.93;115738;1202;22366;-57
2021/08/30 06:08:32;;;;;;;19.00;11.30;;;;;;;19.65;78.55;98756.73;115562;1199;138224;-57
2021/08/30 06:11:01;;;;;;;17.80;11.30;;;;;;;19.68;78.44;98748.58;115732;1202;23052;-57
2021/08/30 06:13:31;;;;;;;15.50;10.40;;;;;;;19.74;78.31;98753.95;115748;1202;22343;-57
2021/08/30 06:15:59;;;;;;;14.40;10.10;;;;;;;19.79;77.88;98756.17;115593;1199;138996;-57
2021/08/30 06:18:27;;;;;;;14.50;10.80;;;;;;;19.86;77.34;98752.17;115748;1202;22329;-58
2021/08/30 06:20:55;;;;;;;21.80;12.80;;;;;;;19.92;77.38;98750.96;115617;1199;138165;-58
2021/08/30 06:23:23;;;;;;;20.40;11.90;;;;;;;20.00;76.72;98743.91;115787;1202;22303;-58
2021/08/30 06:25:52;;;;;;;24.50;12.30;;;;;;;20.06;76.07;98733.86;115681;1202;22314;-57
2021/08/30 06:28:20;;;;;;;19.10;10.60;;;;;;;20.10;75.87;98728.09;115611;1198;138568;-58
2021/08/30 06:30:48;;;;;;;17.80;11.20;;;;;;;20.17;76.15;98727.77;115700;1202;22096;-59
2021/08/30 06:33:16;;;;;;;18.00;10.80;;;;;;;20.20;76.10;98728.45;115644;1199;138237;-58
2021/08/30 06:35:44;;;;;;;21.20;11.30;;;;;;;20.20;76.13;98730.63;115724;1205;22313;-58
2021/08/30 06:38:13;;;;;;;18.80;10.70;;;;;;;20.23;76.25;98737.56;115650;1199;138827;-58
2021/08/30 06:40:41;;;;;;;17.60;11.50;;;;;;;20.26;76.09;98746.68;115760;1209;22973;-59
2021/08/30 06:43:10;;;;;;;23.20;11.50;;;;;;;20.28;75.91;98752.84;115732;1202;22297;-58
2021/08/30 06:45:48;;;;;;;15.30;10.90;;;;;;;20.29;75.59;98749.98;115642;1199;137960;-56
2021/08/30 06:48:16;;;;;;;16.00;10.10;;;;;;;20.29;75.37;98747.98;115757;1202;22324;-57
2021/08/30 06:50:44;;;;;;;18.50;11.10;;;;;;;20.31;75.00;98745.60;115591;1202;139899;-57
2021/08/30 06:53:13;;;;;;;19.00;11.70;;;;;;;20.35;74.91;98740.14;115755;1202;22328;-57
2021/08/30 06:55:41;;;;;;;21.00;10.70;;;;;;;20.41;75.15;98737.52;115701;1198;22343;-58
2021/08/30 06:58:09;;;;;;;16.90;11.00;;;;;;;20.49;74.81;98736.23;115584;1198;137796;-57
2021/08/30 07:00:37;;;;;;;16.00;10.30;;;;;;;20.57;73.94;98737.14;115753;1202;22361;-58
2021/08/30 07:03:07;;;;;;;15.20;10.40;;;;;;;20.63;73.31;98737.03;115671;1198;137850;-57
2021/08/30 07:05:36;;;;;;;18.60;10.60;;;;;;;20.69;73.06;98742.85;115710;1205;22343;-58
2021/08/30 07:08:04;;;;;;;16.60;11.60;;;;;;;20.74;72.59;98744.46;115650;1198;138495;-58
2021/08/30 07:10:32;;;;;;;17.70;10.80;;;;;;;20.78;72.48;98744.08;115802;1202;22283;-58
2021/08/30 07:13:01;;;;;;;17.20;11.20;;;;;;;20.79;72.12;98741.78;115733;1203;22973;-58
2021/08/30 07:15:36;;;;;;;16.10;11.50;;;;;;;20.81;72.29;98741.53;115687;1205;138071;-57
2021/08/30 07:18:04;;;;;;;23.10;10.80;;;;;;;20.87;72.10;98739.79;115740;1204;22823;-58
2021/08/30 07:20:32;;;;;;;17.90;10.30;;;;;;;20.91;72.26;98740.88;115627;1198;138522;-57
2021/08/30 07:23:00;;;;;;;20.10;11.60;;;;;;;20.94;72.07;98735.73;115790;1203;23171;-57
2021/08/30 07:25:28;;;;;;;15.90;11.00;;;;;;;20.98;72.41;98738.35;115757;1202;22324;-58
2021/08/30 07:27:57;;;;;;;22.00;11.50;;;;;;;21.06;72.55;98735.04;115618;1199;138547;-58
2021/08/30 07:30:25;;;;;;;19.80;11.50;;;;;;;21.13;72.16;98732.19;115737;1205;22200;-58
2021/08/30 07:32:53;;;;;;;18.50;11.00;;;;;;;21.19;71.75;98730.75;115667;1198;138400;-58
2021/08/30 07:35:21;;;;;;;18.60;11.00;;;;;;;21.23;71.59;98726.44;115781;1203;22304;-59
2021/08/30 07:37:49;;;;;;;23.60;12.20;;;;;;;21.26;71.69;98721.70;115804;1202;23078;-58
2021/08/30 07:40:17;;;;;;;21.40;12.50;;;;;;;21.28;71.51;98725.73;113537;1198;138214;-58
2021/08/30 07:42:50;;;;;;;18.30;11.80;;;;;;;21.30;71.27;98730.73;111523;1202;22447;-57
2021/08/30 07:45:19;;;;;;;20.70;11.20;;;;;;;21.33;71.74;98731.04;111520;1199;137825;-57
2021/08/30 07:47:47;;;;;;;25.70;12.20;;;;;;;21.39;71.67;98734.14;111604;1202;25339;-58
2021/08/30 07:50:15;;;;;;;22.10;12.50;;;;;;;21.43;71.20;98733.20;115615;1199;138979;-58
2021/08/30 07:52:45;;;;;;;19.10;12.70;;;;;;;21.48;71.38;98732.61;115737;1202;22283;-58
2021/08/30 07:55:13;;;;;;;20.50;12.20;;;;;;;21.54;71.94;98735.89;115792;1202;22324;-57
2021/08/30 07:57:42;;;;;;;25.10;11.60;;;;;;;21.63;71.94;98725.61;115666;1198;138114;-57
2021/08/30 08:00:10;;;;;;;22.30;12.20;;;;;;;21.72;70.68;98726.22;115673;1203;22453;-57
2021/08/30 08:02:38;;;;;;;15.40;11.30;;;;;;;21.77;69.92;98739.54;115676;1198;138316;-58
2021/08/30 08:05:07;;;;;;;17.70;11.20;;;;;;;21.79;69.77;98751.30;115741;1205;22316;-57
2021/08/30 08:07:39;;;;;;;17.10;11.50;;;;;;;21.79;69.35;98743.61;115824;1209;22209;-57
2021/08/30 08:10:07;;;;;;;16.60;12.20;;;;;;;21.81;69.58;98747.70;115700;1198;138609;-57
2021/08/30 08:12:35;;;;;;;18.60;11.90;;;;;;;21.85;69.18;98745.70;115733;1203;22320;-57
2021/08/30 08:15:22;;;;;;;18.90;13.20;;;;;;;21.89;69.34;98731.40;115648;1199;138147;-58
2021/08/30 08:17:50;;;;;;;20.90;12.60;;;;;;;21.92;69.42;98733.52;115735;1209;23104;-57
2021/08/30 08:20:20;;;;;;;22.20;12.50;;;;;;;21.96;69.87;98746.64;115620;1198;139227;-57
2021/08/30 08:22:48;;;;;;;19.30;12.00;;;;;;;22.04;69.61;98757.61;115743;1209;22333;-57
2021/08/30 08:25:17;;;;;;;17.00;12.80;;;;;;;22.10;69.07;98753.27;115778;1205;22295;-57
2021/08/30 08:27:47;;;;;;;16.80;11.20;;;;;;;22.15;69.24;98739.39;115650;1198;139014;-58
2021/08/30 08:30:15;;;;;;;17.30;11.20;;;;;;;22.19;69.24;98734.91;115548;1204;22973;-59
2021/08/30 08:32:45;;;;;;;26.40;13.00;;;;;;;22.27;69.48;98728.27;115701;1198;138636;-58
2021/08/30 08:35:13;;;;;;;20.90;12.90;;;;;;;22.34;69.39;98731.09;115755;1203;22357;-58
2021/08/30 08:37:42;;;;;;;19.60;13.20;;;;;;;22.39;68.34;98729.23;115774;1205;22318;-58
2021/08/30 08:40:12;;;;;;;18.50;12.30;;;;;;;22.43;68.49;98718.64;115656;1198;138450;-58
2021/08/30 08:42:41;;;;;;;23.10;13.00;;;;;;;22.48;68.22;98709.11;115726;1205;22357;-58
2021/08/30 08:45:10;;;;;;;16.90;12.00;;;;;;;22.59;67.98;98711.53;115659;1198;138651;-58
2021/08/30 08:47:39;;;;;;;22.60;13.90;;;;;;;22.66;67.30;98707.37;115828;1205;22313;-58
2021/08/30 08:50:09;;;;;;;19.00;12.70;;;;;;;22.71;67.28;98714.30;115624;1199;138112;-58
2021/08/30 08:52:40;;;;;;;22.30;12.80;;;;;;;22.74;66.82;98718.98;115710;1202;22099;-57
2021/08/30 08:55:08;;;;;;;21.60;12.70;;;;;;;22.76;66.35;98714.77;115775;1202;22311;-57
2021/08/30 08:57:36;;;;;;;19.90;13.10;;;;;;;22.75;66.26;98703.48;115678;1199;138266;-58
2021/08/30 09:00:07;;;;;;;20.30;13.60;;;;;;;22.78;66.10;98707.07;115705;1205;22222;-58
2021/08/30 09:02:35;;;;;;;27.50;14.50;;;;;;;22.83;66.51;98715.75;115686;1198;138286;-58
2021/08/30 09:05:06;;;;;;;18.40;12.50;;;;;;;22.92;66.22;98709.63;115761;1201;22330;-57
2021/08/30 09:07:39;;;;;;;19.00;12.40;;;;;;;22.98;66.13;98701.89;115797;1201;22715;-58
2021/08/30 09:10:13;;;;;;;25.30;14.30;;;;;;;23.00;65.82;98699.89;115623;1198;137832;-57
2021/08/30 09:12:43;;;;;;;21.10;13.40;;;;;;;23.01;65.36;98704.60;115759;1202;23090;-58
2021/08/30 09:15:21;;;;;;;24.90;13.50;;;;;;;23.00;65.17;98699.72;115624;1198;138585;-57
2021/08/30 09:17:50;;;;;;;22.00;13.50;;;;;;;22.99;65.06;98681.85;115722;1209;22197;-57
2021/08/30 09:20:23;;;;;;;17.90;13.00;;;;;;;23.03;64.72;98692.27;115548;1198;138697;-58
2021/08/30 09:22:51;;;;;;;18.10;13.30;;;;;;;23.08;64.32;98707.00;115699;1205;22313;-58
2021/08/30 09:25:20;;;;;;;21.10;12.70;;;;;;;23.09;64.61;98707.41;115778;1201;22302;-58
2021/08/30 09:27:51;;;;;;;23.20;13.10;;;;;;;23.11;65.24;98696.50;115615;1198;138323;-58
2021/08/30 09:30:25;;;;;;;22.70;13.90;;;;;;;23.15;65.14;98687.95;115734;1205;23251;-57
2021/08/30 09:32:53;;;;;;;17.10;13.90;;;;;;;23.18;64.57;98695.42;115641;1201;138527;-57
2021/08/30 09:35:22;;;;;;;25.40;13.30;;;;;;;23.20;64.43;98707.14;115741;1205;22135;-58
2021/08/30 09:37:50;;;;;;;22.60;14.40;;;;;;;23.24;65.21;98692.77;115712;1206;22387;-57
2021/08/30 09:40:22;;;;;;;21.40;13.90;;;;;;;23.30;64.95;98691.39;115660;1198;137810;-57
2021/08/30 09:42:56;;;;;;;18.40;13.20;;;;;;;23.38;65.18;98686.23;115709;1205;23394;-57
2021/08/30 09:45:26;;;;;;;22.30;14.30;;;;;;;23.48;64.24;98680.14;115595;1199;138999;-59
2021/08/30 09:48:01;;;;;;;24.50;13.30;;;;;;;23.54;63.30;98689.25;115738;1205;22515;-58
2021/08/30 09:50:31;;;;;;;21.70;13.40;;;;;;;23.55;63.76;98689.60;115672;1205;138210;-58
2021/08/30 09:52:59;;;;;;;21.60;13.10;;;;;;;23.57;63.83;98681.38;115707;1205;23622;-57
2021/08/30 09:55:28;;;;;;;22.00;13.90;;;;;;;23.61;64.53;98690.77;115797;1201;22417;-58
2021/08/30 09:57:56;;;;;;;23.30;13.90;;;;;;;23.69;64.22;98696.25;115664;1198;138435;-58
2021/08/30 10:00:25;;;;;;;15.90;13.00;;;;;;;23.76;63.62;98699.27;115700;1206;22341;-58
2021/08/30 10:02:54;;;;;;;27.90;14.00;;;;;;;23.81;63.68;98701.11;115642;1198;137828;-58
2021/08/30 10:05:24;;;;;;;17.40;12.80;;;;;;;23.84;64.12;98691.17;115795;1209;22378;-58
2021/08/30 10:07:55;;;;;;;16.80;13.00;;;;;;;23.86;63.98;98699.15;115768;1205;22399;-58
2021/08/30 10:10:23;;;;;;;25.20;13.20;;;;;;;23.85;63.44;98702.31;115598;1198;137697;-58
2021/08/30 10:13:11;;;;;;;19.60;13.80;;;;;;;23.86;63.10;98710.35;115774;1209;22358;-58
2021/08/30 10:15:59;;;;;;;18.90;13.40;;;;;;;23.89;63.59;98717.52;115554;1199;138062;-58
2021/08/30 10:18:29;;;;;;;20.70;12.80;;;;;;;23.93;62.71;98721.25;115674;1205;22246;-58
2021/08/30 10:20:57;;;;;;;19.40;13.90;;;;;;;23.94;62.35;98728.91;115513;1202;137558;-59
2021/08/30 10:23:37;;;;;;;16.40;13.40;;;;;;;23.92;62.49;98723.92;115700;1209;22267;-58
2021/08/30 10:26:05;;;;;;;29.80;13.20;;;;;;;23.88;62.42;98712.16;115598;1198;137379;-58
2021/08/30 10:28:35;;;;;;;22.40;14.10;;;;;;;23.86;62.87;98710.19;115744;1205;23218;-58
2021/08/30 10:31:17;;;;;;;24.80;14.40;;;;;;;23.85;62.66;98706.13;115760;1206;22459;-58
2021/08/30 10:33:56;;;;;;;23.10;13.30;;;;;;;23.89;63.24;98711.06;115668;1198;139042;-59
2021/08/30 10:36:32;;;;;;;15.70;12.70;;;;;;;23.96;63.45;98717.56;115755;1204;23296;-59
2021/08/30 10:39:05;;;;;;;22.70;13.10;;;;;;;24.04;63.01;98713.98;115594;1198;138265;-58
2021/08/30 10:41:38;;;;;;;24.10;14.40;;;;;;;24.08;63.20;98715.98;115763;1203;22342;-50
2021/08/30 10:44:28;;;;;;;20.40;13.40;;;;;;;24.11;62.91;98707.77;115647;1202;138067;-50
2021/08/30 10:46:56;;;;;;;25.30;14.90;;;;;;;24.15;62.97;98712.61;115813;1210;22144;-50
2021/08/30 10:49:30;;;;;;;22.70;14.00;;;;;;;24.18;62.86;98708.79;115775;1202;22347;-50
2021/08/30 10:52:14;;;;;;;20.60;13.60;;;;;;;24.25;63.66;98702.52;115627;1203;137502;-51
2021/08/30 10:54:55;;;;;;;23.80;13.80;;;;;;;24.37;62.89;98702.65;115766;1202;22520;-50
2021/08/30 10:57:37;;;;;;;22.50;14.80;;;;;;;24.47;62.91;98703.95;115679;1201;137326;-50
2021/08/30 11:00:10;;;;;;;17.30;13.40;;;;;;;24.54;62.04;98706.45;115747;1202;22509;-51
2021/08/30 11:02:48;;;;;;;18.00;13.50;;;;;;;24.60;62.12;98703.79;115593;1198;139227;-51
2021/08/30 11:05:27;;;;;;;20.30;13.60;;;;;;;24.68;62.12;98709.98;115756;1202;22243;-51
2021/08/30 11:07:57;;;;;;;25.40;12.80;;;;;;;24.74;61.46;98708.80;115758;1210;22371;-51
2021/08/30 11:10:27;;;;;;;18.60;14.00;;;;;;;24.78;61.85;98698.21;115553;1199;137853;-51
2021/08/30 11:12:56;;;;;;;20.60;13.40;;;;;;;24.82;61.44;98700.42;115740;1202;22415;-49
2021/08/30 11:15:32;;;;;;;25.30;13.30;;;;;;;24.86;61.51;98706.38;115641;1199;138451;-49
2021/08/30 11:18:03;;;;;;;20.30;14.40;;;;;;;24.89;61.44;98691.71;115688;1210;23158;-49
2021/08/30 11:20:31;;;;;;;25.30;14.50;;;;;;;24.91;61.37;98686.17;115631;1198;137380;-51
2021/08/30 11:23:01;;;;;;;23.10;14.40;;;;;;;24.94;61.07;98691.25;115743;1205;22393;-51
2021/08/30 11:25:35;;;;;;;21.10;14.50;;;;;;;24.96;60.76;98686.99;115743;1202;22356;-51
2021/08/30 11:28:16;;;;;;;19.50;14.30;;;;;;;24.98;60.89;98683.27;115635;1200;137236;-51